createdAt,value
2019-02-27T00:00:52.263Z,7.10
2019-02-27T00:03:37.785Z,7.10
2019-02-27T00:06:31.396Z,7.00
2019-02-27T00:09:16.009Z,6.80
2019-02-27T00:12:00.753Z,6.70
2019-02-27T00:14:45.906Z,6.40
2019-02-27T00:17:30.618Z,6.30
2019-02-27T00:20:15.792Z,6.10
2019-02-27T00:23:09.705Z,6.10
2019-02-27T00:25:54.418Z,6.00
2019-02-27T00:28:40.337Z,6.10
2019-02-27T00:31:25.038Z,6.10
2019-02-27T00:34:09.774Z,6.20
2019-02-27T00:36:54.509Z,6.10
2019-02-27T00:39:39.114Z,6.00
2019-02-27T00:42:33.692Z,6.20
2019-02-27T00:45:18.677Z,6.30
2019-02-27T00:48:03.304Z,6.10
2019-02-27T00:50:48.394Z,6.10
2019-02-27T00:53:32.882Z,6.10
2019-02-27T00:56:17.991Z,6.40
2019-02-27T00:59:02.368Z,6.50
2019-02-27T01:01:47.521Z,6.40
2019-02-27T01:04:41.807Z,6.20
2019-02-27T01:07:26.490Z,6.10
2019-02-27T01:10:12.246Z,6.00
2019-02-27T01:12:58.700Z,6.00
2019-02-27T01:15:44.722Z,6.00
2019-02-27T01:18:38.502Z,6.00
2019-02-27T01:21:22.989Z,6.00
2019-02-27T01:24:08.485Z,5.90
2019-02-27T01:27:04.671Z,5.90
2019-02-27T01:29:50.954Z,5.90
2019-02-27T01:32:44.238Z,6.10
2019-02-27T01:35:29.075Z,6.20
2019-02-27T01:38:13.611Z,6.10
2019-02-27T01:40:58.271Z,6.00
2019-02-27T01:43:43.192Z,5.80
2019-02-27T01:46:28.439Z,5.70
2019-02-27T01:49:22.474Z,5.60
2019-02-27T01:52:07.234Z,5.50
2019-02-27T01:54:52.266Z,5.60
2019-02-27T01:57:46.119Z,5.70
2019-02-27T02:00:31.158Z,5.80
2019-02-27T02:03:25.034Z,5.80
2019-02-27T02:06:09.622Z,5.80
2019-02-27T02:08:53.912Z,5.90
2019-02-27T02:11:48.647Z,5.90
2019-02-27T02:14:33.173Z,5.80
2019-02-27T02:17:18.430Z,5.60
2019-02-27T02:20:04.414Z,5.60
2019-02-27T02:22:50.206Z,5.60
2019-02-27T02:25:43.883Z,5.70
2019-02-27T02:28:28.849Z,5.70
2019-02-27T02:31:22.374Z,5.60
2019-02-27T02:34:16.470Z,5.50
2019-02-27T02:37:02.661Z,5.30
2019-02-27T02:39:54.254Z,5.30
2019-02-27T02:42:33.998Z,5.50
2019-02-27T02:45:32.726Z,5.50
2019-02-27T02:48:27.893Z,5.40
2019-02-27T02:51:20.323Z,5.20
2019-02-27T02:54:05.603Z,5.10
2019-02-27T02:57:00.581Z,5.10
2019-02-27T02:59:46.038Z,5.00
2019-02-27T03:02:39.703Z,5.00
2019-02-27T03:05:24.465Z,5.20
2019-02-27T03:08:09.371Z,5.20
2019-02-27T03:10:54.116Z,4.90
2019-02-27T03:13:41.863Z,4.70
2019-02-27T03:16:27.174Z,4.60
2019-02-27T03:19:12.006Z,4.50
2019-02-27T03:22:03.131Z,4.50
2019-02-27T03:24:43.295Z,4.50
2019-02-27T03:27:37.623Z,4.60
2019-02-27T03:30:36.298Z,4.60
2019-02-27T03:33:27.454Z,4.60
2019-02-27T03:36:21.360Z,4.70
2019-02-27T03:39:05.656Z,4.90
2019-02-27T03:41:50.872Z,5.00
2019-02-27T03:44:35.451Z,5.00
2019-02-27T03:47:20.508Z,4.90
2019-02-27T03:50:05.398Z,5.10
2019-02-27T03:53:02.256Z,5.10
2019-02-27T03:55:58.675Z,5.00
2019-02-27T03:58:43.367Z,4.90
2019-02-27T04:01:30.498Z,5.10
2019-02-27T04:04:15.116Z,5.20
2019-02-27T04:06:59.758Z,5.10
2019-02-27T04:09:44.426Z,4.80
2019-02-27T04:12:29.231Z,4.60
2019-02-27T04:15:17.667Z,4.40
2019-02-27T04:18:00.835Z,4.50
2019-02-27T04:20:49.745Z,4.40
2019-02-27T04:23:47.765Z,4.50
2019-02-27T04:26:27.807Z,4.70
2019-02-27T04:29:12.334Z,4.80
2019-02-27T04:31:57.325Z,4.70
2019-02-27T04:34:41.989Z,4.60
2019-02-27T04:37:26.898Z,4.50
2019-02-27T04:40:11.808Z,4.40
2019-02-27T04:42:59.382Z,4.20
2019-02-27T04:45:46.717Z,4.20
2019-02-27T04:48:40.135Z,4.50
2019-02-27T04:51:24.975Z,4.70
2019-02-27T04:54:10.034Z,4.80
2019-02-27T04:57:04.075Z,4.90
2019-02-27T04:59:49.781Z,4.90
2019-02-27T05:02:35.198Z,4.60
2019-02-27T05:05:19.626Z,4.40
2019-02-27T05:08:04.566Z,4.40
2019-02-27T05:10:49.775Z,4.30
2019-02-27T05:13:44.079Z,4.20
2019-02-27T05:16:37.694Z,4.10
2019-02-27T05:19:22.488Z,4.10
2019-02-27T05:22:07.357Z,4.00
2019-02-27T05:24:51.918Z,4.00
2019-02-27T05:27:37.154Z,4.10
2019-02-27T05:30:22.046Z,4.30
2019-02-27T05:33:15.967Z,4.30
2019-02-27T05:36:01.090Z,4.20
2019-02-27T05:38:54.704Z,4.20
2019-02-27T05:41:39.487Z,4.20
2019-02-27T05:44:24.379Z,4.10
2019-02-27T05:47:11.109Z,4.10
2019-02-27T05:50:04.910Z,4.30
2019-02-27T05:52:49.700Z,4.40
2019-02-27T05:55:38.985Z,4.30
2019-02-27T05:58:30.270Z,4.20
2019-02-27T06:01:15.073Z,4.10
2019-02-27T06:03:59.393Z,4.10
2019-02-27T06:06:45.692Z,4.20
2019-02-27T06:09:41.455Z,4.20
2019-02-27T06:12:34.343Z,4.00
2019-02-27T06:15:19.111Z,3.90
2019-02-27T06:18:03.602Z,3.80
2019-02-27T06:20:48.980Z,3.80
2019-02-27T06:23:35.402Z,3.80
2019-02-27T06:26:18.370Z,3.80
2019-02-27T06:35:21.138Z,3.70
2019-02-27T06:38:15.079Z,3.80
2019-02-27T06:41:00.278Z,3.80
2019-02-27T06:43:53.898Z,3.70
2019-02-27T06:46:47.987Z,3.70
2019-02-27T06:49:32.914Z,3.60
2019-02-27T06:52:17.543Z,3.60
2019-02-27T06:55:02.558Z,3.40
2019-02-27T06:57:56.826Z,3.40
2019-02-27T07:00:52.810Z,3.40
2019-02-27T07:03:48.566Z,3.50
2019-02-27T07:06:34.507Z,3.60
2019-02-27T07:09:28.063Z,3.60
2019-02-27T07:12:13.100Z,3.70
2019-02-27T07:14:56.284Z,3.90
2019-02-27T07:21:01.218Z,4.20
2019-02-27T07:23:58.574Z,4.40
2019-02-27T07:26:51.938Z,4.60
2019-02-27T07:29:36.856Z,4.70
2019-02-27T07:32:21.722Z,4.80
2019-02-27T07:35:06.742Z,4.90
2019-02-27T07:37:51.860Z,5.00
2019-02-27T07:40:45.894Z,5.10
2019-02-27T07:43:39.915Z,5.30
2019-02-27T07:46:25.422Z,5.40
2019-02-27T07:49:10.391Z,5.50
2019-02-27T07:51:57.905Z,5.70
2019-02-27T07:54:41.625Z,5.80
2019-02-27T07:57:26.737Z,6.00
2019-02-27T08:00:14.829Z,6.20
2019-02-27T08:02:56.598Z,6.40
2019-02-27T08:09:15.450Z,6.80
2019-02-27T08:12:00.423Z,6.90
2019-02-27T08:14:45.757Z,7.10
2019-02-27T08:17:39.354Z,7.20
2019-02-27T08:20:24.354Z,7.50
2019-02-27T08:23:09.167Z,7.60
2019-02-27T08:25:54.098Z,7.80
2019-02-27T08:28:51.522Z,7.90
2019-02-27T08:31:45.418Z,8.10
2019-02-27T08:34:39.445Z,8.20
2019-02-27T08:37:33.202Z,8.40
2019-02-27T08:40:18.831Z,8.50
2019-02-27T08:43:12.522Z,8.80
2019-02-27T08:46:06.840Z,8.90
2019-02-27T08:49:00.450Z,9.20
2019-02-27T08:51:45.034Z,9.50
2019-02-27T08:54:32.206Z,9.70
2019-02-27T08:57:16.986Z,10.00
2019-02-27T09:00:14.242Z,10.30
2019-02-27T09:03:06.359Z,10.50
2019-02-27T09:05:50.997Z,10.80
2019-02-27T09:08:37.454Z,11.10
2019-02-27T09:11:22.057Z,11.40
2019-02-27T09:14:06.737Z,11.70
2019-02-27T09:16:51.538Z,12.10
2019-02-27T09:19:36.554Z,12.30
2019-02-27T09:22:21.567Z,12.60
2019-02-27T09:25:06.284Z,12.90
2019-02-27T09:27:51.074Z,13.20
2019-02-27T09:30:35.811Z,13.50
2019-02-27T09:33:21.030Z,13.80
2019-02-27T09:36:15.508Z,14.00
2019-02-27T09:39:09.374Z,14.20
2019-02-27T09:42:03.039Z,14.50
2019-02-27T09:44:47.894Z,14.80
2019-02-27T09:47:32.298Z,15.10
2019-02-27T09:50:17.179Z,15.40
2019-02-27T09:53:03.487Z,15.60
2019-02-27T09:55:53.298Z,15.90
2019-02-27T09:58:45.688Z,16.10
2019-02-27T10:01:34.413Z,16.20
2019-02-27T10:04:28.832Z,16.40
2019-02-27T10:07:16.810Z,16.50
2019-02-27T10:10:10.444Z,16.70
2019-02-27T10:13:04.603Z,16.90
2019-02-27T10:15:49.758Z,17.20
2019-02-27T10:18:43.655Z,17.40
2019-02-27T10:21:28.558Z,17.60
2019-02-27T10:24:13.619Z,17.80
2019-02-27T10:27:07.736Z,18.00
2019-02-27T10:30:01.615Z,18.30
2019-02-27T10:32:55.691Z,18.60
2019-02-27T10:35:41.055Z,18.80
2019-02-27T10:38:40.111Z,19.10
2019-02-27T10:41:20.834Z,19.40
2019-02-27T10:44:05.830Z,19.70
2019-02-27T10:46:52.129Z,19.90
2019-02-27T10:49:38.293Z,20.10
2019-02-27T10:52:24.318Z,20.40
2019-02-27T10:55:11.238Z,20.70
2019-02-27T10:57:58.323Z,21.00
2019-02-27T11:00:51.758Z,21.30
2019-02-27T11:03:36.872Z,21.60
2019-02-27T11:06:33.961Z,21.90
2019-02-27T11:09:26.218Z,22.10
2019-02-27T11:12:11.690Z,22.40
2019-02-27T11:15:08.108Z,22.60
2019-02-27T11:17:52.329Z,22.90
2019-02-27T11:20:46.212Z,23.00
2019-02-27T11:23:31.527Z,23.20
2019-02-27T11:26:23.831Z,23.40
2019-02-27T11:29:17.669Z,23.60
2019-02-27T11:32:02.950Z,24.00
2019-02-27T11:34:56.666Z,24.20
2019-02-27T11:37:41.479Z,24.40
2019-02-27T11:40:26.709Z,24.60
2019-02-27T11:43:20.390Z,24.90
2019-02-27T11:46:05.735Z,25.10
2019-02-27T11:48:59.949Z,25.10
2019-02-27T11:51:45.790Z,25.30
2019-02-27T11:54:30.334Z,25.50
2019-02-27T11:57:15.043Z,25.60
2019-02-27T12:00:00.581Z,25.70
2019-02-27T12:02:56.154Z,26.00
2019-02-27T12:05:56.670Z,26.30
2019-02-27T12:08:50.163Z,26.50
2019-02-27T12:11:35.533Z,26.60
2019-02-27T12:14:19.802Z,26.90
2019-02-27T12:17:04.577Z,27.10
2019-02-27T12:19:49.531Z,27.40
2019-02-27T12:22:43.935Z,27.70
2019-02-27T12:25:37.428Z,27.90
2019-02-27T12:28:23.125Z,28.00
2019-02-27T12:31:11.094Z,28.00
2019-02-27T12:33:54.847Z,28.20
2019-02-27T12:36:39.502Z,28.30
2019-02-27T12:39:24.529Z,28.40
2019-02-27T12:42:09.647Z,28.60
2019-02-27T12:44:54.719Z,28.60
2019-02-27T12:47:41.382Z,28.70
2019-02-27T12:50:35.190Z,29.00
2019-02-27T12:53:29.150Z,29.10
2019-02-27T12:56:13.654Z,29.00
2019-02-27T12:58:58.590Z,29.00
2019-02-27T13:01:52.970Z,29.00
2019-02-27T13:04:38.407Z,28.90
2019-02-27T13:07:23.017Z,28.10
2019-02-27T13:10:16.420Z,27.50
2019-02-27T13:13:01.082Z,27.10
2019-02-27T13:15:46.468Z,26.20
2019-02-27T13:18:40.435Z,25.70
2019-02-27T13:21:25.382Z,25.50
2019-02-27T13:24:19.870Z,25.10
2019-02-27T13:27:09.026Z,24.80
2019-02-27T13:29:56.756Z,24.40
2019-02-27T13:32:47.834Z,24.10
2019-02-27T13:35:32.902Z,23.70
2019-02-27T13:38:26.350Z,23.40
2019-02-27T13:41:11.602Z,23.10
2019-02-27T13:43:58.257Z,23.00
2019-02-27T13:46:54.487Z,22.70
2019-02-27T13:49:38.463Z,22.60
2019-02-27T13:52:23.114Z,22.30
2019-02-27T13:55:11.217Z,22.00
2019-02-27T13:57:58.835Z,22.00
2019-02-27T14:00:53.669Z,21.80
2019-02-27T14:03:48.394Z,21.80
2019-02-27T14:06:33.778Z,21.70
2019-02-27T14:09:19.081Z,21.80
2019-02-27T14:12:12.723Z,21.80
2019-02-27T14:14:58.698Z,21.60
2019-02-27T14:17:44.305Z,21.60
2019-02-27T14:20:37.808Z,21.70
2019-02-27T14:23:23.222Z,21.90
2019-02-27T14:26:16.998Z,22.00
2019-02-27T14:29:04.045Z,22.20
2019-02-27T14:31:57.855Z,22.00
2019-02-27T14:34:53.355Z,22.20
2019-02-27T14:37:38.274Z,22.30
2019-02-27T14:40:37.283Z,22.30
2019-02-27T14:43:27.969Z,22.80
2019-02-27T14:46:12.596Z,23.20
2019-02-27T14:48:57.922Z,23.80
2019-02-27T14:51:51.518Z,24.00
2019-02-27T14:54:36.594Z,24.20
2019-02-27T14:57:21.282Z,24.60
2019-02-27T15:00:06.653Z,25.10
2019-02-27T15:02:52.181Z,25.70
2019-02-27T15:05:43.158Z,26.20
2019-02-27T15:08:32.722Z,26.80
2019-02-27T15:11:17.966Z,27.20
2019-02-27T15:14:12.142Z,27.50
2019-02-27T15:17:06.484Z,27.90
2019-02-27T15:20:05.602Z,28.20
2019-02-27T15:23:08.181Z,28.20
2019-02-27T15:25:53.069Z,28.30
2019-02-27T15:28:37.890Z,28.40
2019-02-27T15:31:23.022Z,27.90
2019-02-27T15:34:11.834Z,27.60
2019-02-27T15:36:54.861Z,27.20
2019-02-27T15:39:49.130Z,26.80
2019-02-27T15:42:44.187Z,26.20
2019-02-27T15:45:29.758Z,25.50
2019-02-27T15:48:15.217Z,24.80
2019-02-27T15:51:00.394Z,24.40
2019-02-27T15:53:49.755Z,24.20
2019-02-27T15:56:44.628Z,23.90
2019-02-27T15:59:27.816Z,23.40
2019-02-27T16:02:12.310Z,23.00
2019-02-27T16:04:57.602Z,22.50
2019-02-27T16:07:48.460Z,22.00
2019-02-27T16:10:42.680Z,21.70
2019-02-27T16:13:24.570Z,21.40
2019-02-27T16:16:23.216Z,21.20
2019-02-27T16:19:16.595Z,21.10
2019-02-27T16:22:10.479Z,21.00
2019-02-27T16:25:04.549Z,20.90
2019-02-27T16:27:58.166Z,20.70
2019-02-27T16:30:43.242Z,20.50
2019-02-27T16:33:28.570Z,20.20
2019-02-27T16:36:23.463Z,19.90
2019-02-27T16:39:08.366Z,19.60
2019-02-27T16:41:54.788Z,19.40
2019-02-27T16:44:39.598Z,19.30
2019-02-27T16:47:23.942Z,19.10
2019-02-27T16:50:08.763Z,19.00
2019-02-27T16:52:53.582Z,18.70
2019-02-27T16:55:39.556Z,18.40
2019-02-27T16:58:33.853Z,17.90
2019-02-27T17:01:19.015Z,17.50
2019-02-27T17:04:03.738Z,17.00
2019-02-27T17:06:52.318Z,16.90
2019-02-27T17:09:38.222Z,17.10
2019-02-27T17:12:23.307Z,17.20
2019-02-27T17:15:07.993Z,17.30
2019-02-27T17:17:53.326Z,16.80
2019-02-27T17:20:38.849Z,16.30
2019-02-27T17:23:23.622Z,15.80
2019-02-27T17:26:09.010Z,15.40
2019-02-27T17:28:54.375Z,15.00
2019-02-27T17:31:49.747Z,15.10
2019-02-27T17:34:35.507Z,15.10
2019-02-27T17:37:20.924Z,14.90
2019-02-27T17:40:06.047Z,14.40
2019-02-27T17:42:53.500Z,14.10
2019-02-27T17:45:38.882Z,14.20
2019-02-27T17:48:32.361Z,14.20
2019-02-27T17:51:16.894Z,13.80
2019-02-27T17:54:01.983Z,13.40
2019-02-27T17:56:50.038Z,13.30
2019-02-27T17:59:43.047Z,13.10
2019-02-27T18:02:37.150Z,13.20
2019-02-27T18:05:25.453Z,13.50
2019-02-27T18:08:17.874Z,13.70
2019-02-27T18:11:15.406Z,13.70
2019-02-27T18:14:09.925Z,13.50
2019-02-27T18:16:54.205Z,13.00
2019-02-27T18:19:50.202Z,12.60
2019-02-27T18:22:34.690Z,12.30
2019-02-27T18:25:28.590Z,12.20
2019-02-27T18:28:23.203Z,12.00
2019-02-27T18:31:17.022Z,11.90
2019-02-27T18:34:11.410Z,11.80
2019-02-27T18:36:57.246Z,12.10
2019-02-27T18:39:43.258Z,12.30
2019-02-27T18:42:28.651Z,12.50
2019-02-27T18:45:15.283Z,12.40
2019-02-27T18:48:10.083Z,12.10
2019-02-27T18:50:56.017Z,12.00
2019-02-27T18:53:51.060Z,11.90
2019-02-27T18:56:36.919Z,11.60
2019-02-27T18:59:22.531Z,11.40
2019-02-27T19:02:19.536Z,11.30
2019-02-27T19:05:12.310Z,11.10
2019-02-27T19:07:57.313Z,11.20
2019-02-27T19:10:51.290Z,11.20
2019-02-27T19:13:36.010Z,11.00
2019-02-27T19:16:21.494Z,10.80
2019-02-27T19:19:06.646Z,10.60
2019-02-27T19:21:51.842Z,10.50
2019-02-27T19:24:37.345Z,10.60
2019-02-27T19:27:31.040Z,10.60
2019-02-27T19:30:16.286Z,10.40
2019-02-27T19:33:09.818Z,10.30
2019-02-27T19:35:56.380Z,10.10
2019-02-27T19:38:41.126Z,10.00
2019-02-27T19:41:26.335Z,9.90
2019-02-27T19:44:19.875Z,9.90
2019-02-27T19:47:04.617Z,10.20
2019-02-27T19:49:49.450Z,10.40
2019-02-27T19:52:34.950Z,10.30
2019-02-27T19:55:28.375Z,10.00
2019-02-27T19:58:17.154Z,9.70
2019-02-27T20:01:01.058Z,9.70
2019-02-27T20:03:47.207Z,9.70
2019-02-27T20:06:31.944Z,9.70
2019-02-27T20:09:20.157Z,9.90
2019-02-27T20:12:03.962Z,9.90
2019-02-27T20:14:57.724Z,9.70
2019-02-27T20:17:44.190Z,9.70
2019-02-27T20:20:30.091Z,9.80
2019-02-27T20:23:15.226Z,10.00
2019-02-27T20:26:00.496Z,10.10
2019-02-27T20:28:54.358Z,9.80
2019-02-27T20:31:39.654Z,9.60
2019-02-27T20:34:33.313Z,9.60
2019-02-27T20:37:18.271Z,9.70
2019-02-27T20:40:03.396Z,10.00
2019-02-27T20:42:58.927Z,10.10
2019-02-27T20:45:53.035Z,10.00
2019-02-27T20:48:47.007Z,9.70
2019-02-27T20:51:31.883Z,9.50
2019-02-27T20:54:17.046Z,9.20
2019-02-27T20:57:10.652Z,9.00
2019-02-27T21:00:00.758Z,8.90
2019-02-27T21:02:53.468Z,8.80
2019-02-27T21:05:41.105Z,8.70
2019-02-27T21:08:23.843Z,8.70
2019-02-27T21:11:15.942Z,8.70
2019-02-27T21:14:02.475Z,8.80
2019-02-27T21:16:48.690Z,8.80
2019-02-27T21:19:42.639Z,8.40
2019-02-27T21:22:36.246Z,8.30
2019-02-27T21:25:21.422Z,8.50
2019-02-27T21:28:20.979Z,8.30
2019-02-27T21:31:02.102Z,8.10
2019-02-27T21:33:55.790Z,8.00
2019-02-27T21:36:41.005Z,8.00
2019-02-27T21:39:34.439Z,8.00
2019-02-27T21:42:19.612Z,8.20
2019-02-27T21:45:13.611Z,8.40
2019-02-27T21:48:07.631Z,8.50
2019-02-27T21:50:52.178Z,8.60
2019-02-27T21:53:37.598Z,8.50
2019-02-27T21:56:31.548Z,8.20
2019-02-27T21:59:25.771Z,8.00
2019-02-27T22:02:22.143Z,7.90
2019-02-27T22:05:07.214Z,8.00
2019-02-27T22:07:51.712Z,8.10
2019-02-27T22:10:36.421Z,8.20
2019-02-27T22:13:28.895Z,8.10
2019-02-27T22:16:07.546Z,8.00
2019-02-27T22:18:52.207Z,7.90
2019-02-27T22:21:45.790Z,7.80
2019-02-27T22:24:30.797Z,7.80
2019-02-27T22:27:15.760Z,7.80
2019-02-27T22:30:10.000Z,7.70
2019-02-27T22:33:05.781Z,7.60
2019-02-27T22:35:59.562Z,7.90
2019-02-27T22:38:53.157Z,8.10
2019-02-27T22:41:40.647Z,8.10
2019-02-27T22:44:26.308Z,7.90
2019-02-27T22:47:10.574Z,7.70
2019-02-27T22:49:55.786Z,7.60
2019-02-27T22:52:40.894Z,7.50
2019-02-27T22:55:36.328Z,7.40
2019-02-27T22:58:21.607Z,7.50
2019-02-27T23:01:19.592Z,7.50
2019-02-27T23:04:05.319Z,7.60
2019-02-27T23:06:58.994Z,7.60
2019-02-27T23:09:43.746Z,7.60
2019-02-27T23:12:28.818Z,7.70
2019-02-27T23:15:13.629Z,7.80
2019-02-27T23:18:07.694Z,7.90
2019-02-27T23:20:52.571Z,7.80
2019-02-27T23:23:39.443Z,7.60
2019-02-27T23:26:24.099Z,7.50
2019-02-27T23:29:17.895Z,7.60
2019-02-27T23:32:02.842Z,7.80
2019-02-27T23:34:56.751Z,7.80
2019-02-27T23:37:41.858Z,7.70
2019-02-27T23:40:35.455Z,7.50
2019-02-27T23:43:20.434Z,7.60
2019-02-27T23:46:05.395Z,7.50
2019-02-27T23:48:50.391Z,7.50
2019-02-27T23:51:44.368Z,7.50
2019-02-27T23:54:38.531Z,7.40
2019-02-27T23:57:32.126Z,7.50
